Austin (LCRA Redbud)'s Hourly Summary for Friday, April 14, 2017
Hour Temp
(f)
RH
(%)
Solar Rad.
(MJ/m2)
Rainfall
(in)
Wind
(mph)
4/14/2017 12:00 AM 70 65 0 0 2.57
4/14/2017 1:00 AM 68 73 0 0 1.53
4/14/2017 2:00 AM 66 81 0 0 0.37
4/14/2017 3:00 AM 66 86 0 0 0.02
4/14/2017 4:00 AM 66 89 0 0 0.53
4/14/2017 5:00 AM 66 89 0 0 1.47
4/14/2017 6:00 AM 66 89 0 0 1.06
4/14/2017 7:00 AM 66 90 0 0 0.66
4/14/2017 8:00 AM 66 92 0.05 0 0.53
4/14/2017 9:00 AM 66 92 0.23 0 1.89
4/14/2017 10:00 AM 68 82 0.81 0 2.22
4/14/2017 11:00 AM 71 74 1.2 0 2.64
4/14/2017 12:00 PM 73 58 2 0 3
4/14/2017 1:00 PM 76 55 2.66 0 3.75
4/14/2017 2:00 PM 78 48 3.34 0 3.93
4/14/2017 3:00 PM 79 43 2.99 0 4.28
4/14/2017 4:00 PM 81 41 2.91 0 3.16
4/14/2017 5:00 PM 81 40 2.4 0 3.61
4/14/2017 6:00 PM 81 38 1.66 0 3.19
4/14/2017 7:00 PM 81 37 0.94 0 2.95
4/14/2017 8:00 PM 78 42 0.15 0 1.37
4/14/2017 9:00 PM 72 53 0 0 0.01
4/14/2017 10:00 PM 71 61 0 0 0.91
4/14/2017 11:00 PM 72 61 0 0 1.74
Data Summary 72 65 21.34 0.00 1.97